Time;durP1;ratioP1;P1;durP2;ratioP2;P2;SDS_P1;SDS_P2;PMS_P1;PMS_P2;Temp;Humidity;BMP_temperature;BMP_pressure;BME280_temperature;BME280_humidity;BME280_pressure;Samples;Min_cycle;Max_cycle;Signal;HPM_P1;HPM_P2
2020/12/15 00:00:12;;;;;;;632.47;583.83;;;;;;;;;;5055516;28;20187;-67
2020/12/15 00:02:40;;;;;;;782.20;718.30;;;;;;;;;;5047514;28;20722;-67
2020/12/15 00:05:07;;;;;;;680.53;625.40;;;;;;;;;;5046582;28;20914;-68
2020/12/15 00:07:33;;;;;;;657.37;603.60;;;;;;;;;;5052925;28;20183;-67
2020/12/15 00:10:00;;;;;;;598.63;552.13;;;;;;;;;;5055761;28;20182;-76
2020/12/15 00:12:26;;;;;;;593.00;548.97;;;;;;;;;;5055354;28;20233;-68
2020/12/15 00:14:53;;;;;;;699.97;641.93;;;;;;;;;;5058954;28;20278;-68
2020/12/15 00:17:19;;;;;;;541.30;501.97;;;;;;;;;;5057553;28;20194;-68
2020/12/15 00:19:46;;;;;;;649.80;601.23;;;;;;;;;;5055144;28;20191;-69
2020/12/15 00:22:12;;;;;;;592.67;549.03;;;;;;;;;;5056037;28;20216;-66
2020/12/15 00:24:39;;;;;;;534.83;498.63;;;;;;;;;;5057359;28;20197;-66
2020/12/15 00:27:07;;;;;;;707.67;649.77;;;;;;;;;;5055551;28;20202;-65
2020/12/15 00:29:35;;;;;;;629.93;579.90;;;;;;;;;;5060039;28;20271;-66
2020/12/15 00:32:02;;;;;;;635.97;586.23;;;;;;;;;;5054335;28;20221;-67
2020/12/15 00:34:28;;;;;;;592.97;550.53;;;;;;;;;;5052465;28;20226;-66
2020/12/15 00:36:58;;;;;;;716.83;660.57;;;;;;;;;;5054940;28;20183;-66
2020/12/15 00:39:26;;;;;;;583.63;537.30;;;;;;;;;;5055756;28;20203;-65
2020/12/15 00:41:55;;;;;;;615.33;572.37;;;;;;;;;;5054665;28;20211;-65
2020/12/15 00:44:24;;;;;;;737.50;680.47;;;;;;;;;;5055188;28;20187;-65
2020/12/15 00:46:51;;;;;;;814.37;744.03;;;;;;;;;;5049789;28;20178;-65
2020/12/15 00:49:23;;;;;;;856.27;786.27;;;;;;;;;;5057592;28;20221;-65
2020/12/15 00:51:49;;;;;;;837.33;770.33;;;;;;;;;;5052757;28;20272;-66
2020/12/15 00:54:17;;;;;;;849.57;777.53;;;;;;;;;;5050605;28;20363;-65
2020/12/15 00:56:45;;;;;;;812.63;742.37;;;;;;;;;;5051984;28;20190;-65
2020/12/15 00:59:14;;;;;;;872.57;800.47;;;;;;;;;;5049656;28;20183;-65
2020/12/15 01:01:40;;;;;;;618.83;580.73;;;;;;;;;;5053277;28;20197;-66
2020/12/15 01:04:09;;;;;;;673.77;627.33;;;;;;;;;;5053876;28;20197;-65
2020/12/15 01:06:36;;;;;;;676.77;630.70;;;;;;;;;;5056385;28;20195;-66
2020/12/15 01:09:05;;;;;;;798.77;733.73;;;;;;;;;;5054797;28;20579;-66
2020/12/15 01:11:33;;;;;;;726.27;674.73;;;;;;;;;;5050994;28;20927;-66
2020/12/15 01:14:00;;;;;;;801.33;737.77;;;;;;;;;;5055154;28;20309;-65
2020/12/15 01:16:27;;;;;;;771.97;714.80;;;;;;;;;;5053266;28;20182;-65
2020/12/15 01:18:53;;;;;;;699.43;651.13;;;;;;;;;;5058412;28;20193;-65
2020/12/15 01:24:16;;;;;;;686.43;638.33;;;;;;;;;;5044089;22;20323;-72
2020/12/15 01:26:47;;;;;;;693.70;646.87;;;;;;;;;;5036805;28;20220;-71
2020/12/15 01:29:13;;;;;;;711.00;660.13;;;;;;;;;;5038031;28;20229;-70
2020/12/15 01:31:40;;;;;;;569.73;536.37;;;;;;;;;;5017623;28;20184;-71
2020/12/15 01:34:06;;;;;;;721.87;665.87;;;;;;;;;;5035658;28;20213;-70
2020/12/15 01:36:33;;;;;;;588.57;549.53;;;;;;;;;;5034668;28;20207;-72
2020/12/15 01:39:00;;;;;;;850.80;780.70;;;;;;;;;;5018200;28;20268;-71
2020/12/15 01:41:28;;;;;;;664.60;621.03;;;;;;;;;;5038094;28;20183;-71
2020/12/15 01:43:55;;;;;;;554.03;521.07;;;;;;;;;;5035586;28;20270;-75
2020/12/15 01:46:25;;;;;;;573.10;538.87;;;;;;;;;;5037393;28;20190;-77
2020/12/15 01:48:52;;;;;;;623.07;583.27;;;;;;;;;;5037594;28;20198;-77
2020/12/15 01:51:19;;;;;;;612.90;570.67;;;;;;;;;;5036265;28;20863;-76
2020/12/15 01:53:50;;;;;;;571.83;533.73;;;;;;;;;;5038441;28;20250;-76
2020/12/15 01:56:20;;;;;;;738.93;683.07;;;;;;;;;;5031486;28;20191;-76
2020/12/15 01:58:50;;;;;;;633.07;593.47;;;;;;;;;;5038358;28;20193;-73
2020/12/15 02:01:17;;;;;;;754.77;695.87;;;;;;;;;;5035630;28;20183;-75
2020/12/15 02:03:43;;;;;;;690.20;640.03;;;;;;;;;;5035612;28;20214;-74
2020/12/15 02:06:10;;;;;;;710.37;659.27;;;;;;;;;;5032330;28;20187;-74
2020/12/15 02:08:37;;;;;;;550.27;515.87;;;;;;;;;;5048128;28;20198;-74
2020/12/15 02:11:05;;;;;;;535.07;500.80;;;;;;;;;;5031753;28;20202;-75
2020/12/15 02:13:31;;;;;;;593.03;552.63;;;;;;;;;;5036744;28;20618;-74
2020/12/15 02:15:59;;;;;;;500.03;469.33;;;;;;;;;;5037445;28;20176;-75
2020/12/15 02:18:27;;;;;;;668.77;620.07;;;;;;;;;;5037187;28;20194;-74
2020/12/15 02:20:54;;;;;;;566.67;531.20;;;;;;;;;;5036469;28;20182;-74
2020/12/15 02:23:23;;;;;;;587.43;547.60;;;;;;;;;;5038647;28;20631;-74
2020/12/15 02:25:50;;;;;;;624.90;580.63;;;;;;;;;;5037212;28;20848;-74
2020/12/15 02:28:16;;;;;;;702.83;650.20;;;;;;;;;;5035560;28;20202;-74
2020/12/15 02:30:43;;;;;;;661.60;613.30;;;;;;;;;;5043331;28;20289;-74
2020/12/15 02:33:12;;;;;;;707.90;655.27;;;;;;;;;;5037205;28;21251;-73
2020/12/15 13:55:53;;;;;;;860.67;793.77;;;;;;;;;;5094791;27;20655;-65
2020/12/15 13:58:20;;;;;;;864.80;799.80;;;;;;;;;;5091724;28;20189;-64
2020/12/15 14:00:47;;;;;;;843.73;782.00;;;;;;;;;;5092695;28;20174;-64
2020/12/15 14:03:13;;;;;;;827.83;766.30;;;;;;;;;;5077106;28;20178;-64
2020/12/15 14:05:40;;;;;;;794.43;734.70;;;;;;;;;;5076437;28;20248;-65
2020/12/15 14:08:07;;;;;;;815.63;752.80;;;;;;;;;;5080520;28;20687;-66
2020/12/15 14:10:34;;;;;;;810.33;747.43;;;;;;;;;;5080202;28;20178;-65
2020/12/15 14:13:01;;;;;;;843.37;779.97;;;;;;;;;;5080694;28;20182;-66
2020/12/15 14:15:28;;;;;;;851.67;782.33;;;;;;;;;;5075661;28;20215;-66
2020/12/15 14:17:54;;;;;;;819.07;757.43;;;;;;;;;;5083114;28;20934;-65
2020/12/15 14:20:21;;;;;;;830.40;766.70;;;;;;;;;;5075566;28;20172;-65
2020/12/15 14:22:48;;;;;;;821.23;762.60;;;;;;;;;;5068323;28;20278;-66
2020/12/15 14:25:14;;;;;;;829.00;767.60;;;;;;;;;;5073659;28;20625;-66
2020/12/15 14:27:41;;;;;;;815.83;755.23;;;;;;;;;;5075518;28;20179;-65
2020/12/15 14:30:08;;;;;;;847.20;783.20;;;;;;;;;;5075145;28;20344;-65
2020/12/15 14:32:35;;;;;;;830.63;770.20;;;;;;;;;;5074904;28;20236;-66
2020/12/15 14:35:02;;;;;;;893.27;819.27;;;;;;;;;;5055208;28;20226;-66
2020/12/15 14:37:28;;;;;;;819.60;760.13;;;;;;;;;;5079198;28;20293;-65
2020/12/15 14:39:55;;;;;;;842.33;780.83;;;;;;;;;;5081031;28;20214;-67
2020/12/15 14:42:22;;;;;;;893.27;819.70;;;;;;;;;;5079307;28;20645;-66
2020/12/15 14:44:49;;;;;;;839.97;776.93;;;;;;;;;;5075864;28;20195;-66
2020/12/15 14:47:17;;;;;;;769.03;715.83;;;;;;;;;;5075527;28;20179;-62
2020/12/15 14:49:44;;;;;;;761.27;709.23;;;;;;;;;;5075328;28;20180;-66
2020/12/15 14:52:11;;;;;;;881.20;811.60;;;;;;;;;;5075652;28;20277;-66
2020/12/15 14:54:38;;;;;;;810.03;747.27;;;;;;;;;;5074681;28;20351;-65
2020/12/15 14:57:06;;;;;;;817.27;756.77;;;;;;;;;;5077063;28;20190;-64
2020/12/15 14:59:33;;;;;;;722.70;670.03;;;;;;;;;;5080093;28;20206;-65
2020/12/15 15:02:00;;;;;;;830.17;759.93;;;;;;;;;;5080075;28;20187;-63
2020/12/15 15:04:29;;;;;;;816.63;749.97;;;;;;;;;;5075544;28;20189;-63
2020/12/15 15:06:56;;;;;;;825.10;765.50;;;;;;;;;;5075242;28;20806;-65
2020/12/15 15:09:24;;;;;;;681.67;636.60;;;;;;;;;;5075069;28;20179;-66
2020/12/15 15:11:51;;;;;;;775.77;718.80;;;;;;;;;;5068401;28;20183;-65
2020/12/15 15:14:17;;;;;;;695.77;644.67;;;;;;;;;;5074664;28;20212;-66
2020/12/15 15:16:44;;;;;;;776.43;712.40;;;;;;;;;;5066682;28;20214;-66
2020/12/15 15:19:11;;;;;;;824.60;757.87;;;;;;;;;;5067027;28;20183;-66
2020/12/15 15:21:38;;;;;;;743.20;687.87;;;;;;;;;;5068460;28;20221;-64
2020/12/15 15:24:05;;;;;;;795.90;728.50;;;;;;;;;;5060748;28;20199;-65
2020/12/15 15:26:32;;;;;;;888.80;811.70;;;;;;;;;;5066917;28;20844;-66
2020/12/15 15:28:59;;;;;;;788.10;728.23;;;;;;;;;;5065312;28;20811;-65
2020/12/15 15:31:25;;;;;;;727.70;673.53;;;;;;;;;;5073033;28;20210;-65
2020/12/15 15:33:52;;;;;;;810.83;746.03;;;;;;;;;;5079561;28;20299;-65
2020/12/15 15:36:20;;;;;;;747.33;693.13;;;;;;;;;;5061916;28;20188;-66
2020/12/15 15:38:47;;;;;;;796.67;735.70;;;;;;;;;;5062248;28;20184;-64
2020/12/15 15:41:15;;;;;;;770.00;708.97;;;;;;;;;;5070822;28;20942;-65
2020/12/15 15:43:43;;;;;;;808.63;746.53;;;;;;;;;;5066897;28;20986;-65
2020/12/15 15:46:10;;;;;;;716.67;664.40;;;;;;;;;;5075281;28;20261;-64
2020/12/15 15:48:37;;;;;;;709.73;656.43;;;;;;;;;;5075137;28;20209;-65
2020/12/15 15:51:04;;;;;;;484.47;452.33;;;;;;;;;;5061661;28;20278;-65
2020/12/15 15:53:30;;;;;;;702.80;651.10;;;;;;;;;;5060914;28;20188;-64
2020/12/15 15:55:56;;;;;;;699.87;646.03;;;;;;;;;;5061025;28;20184;-64
2020/12/15 15:58:23;;;;;;;747.93;694.50;;;;;;;;;;5058019;28;20185;-64
2020/12/15 16:00:50;;;;;;;785.20;724.40;;;;;;;;;;5059985;28;20186;-64
2020/12/15 16:03:16;;;;;;;682.37;634.17;;;;;;;;;;5059824;28;20176;-64
2020/12/15 16:05:43;;;;;;;721.67;664.87;;;;;;;;;;5061101;28;20914;-64
2020/12/15 16:08:09;;;;;;;884.43;805.87;;;;;;;;;;5060484;28;20540;-65
2020/12/15 16:10:36;;;;;;;769.83;705.27;;;;;;;;;;5060310;28;20186;-66
2020/12/15 16:13:03;;;;;;;787.27;721.70;;;;;;;;;;5060843;28;20179;-65
2020/12/15 16:15:31;;;;;;;684.67;633.70;;;;;;;;;;5060403;28;20242;-64
2020/12/15 16:17:57;;;;;;;788.40;732.60;;;;;;;;;;5058687;28;20194;-66
2020/12/15 16:20:25;;;;;;;759.53;701.00;;;;;;;;;;5061198;28;20168;-65
2020/12/15 16:22:52;;;;;;;788.47;723.13;;;;;;;;;;5060676;28;20229;-66
2020/12/15 16:25:19;;;;;;;833.63;768.43;;;;;;;;;;5060764;28;20171;-64
2020/12/15 16:27:45;;;;;;;863.93;790.23;;;;;;;;;;5059597;28;20365;-64
2020/12/15 16:30:12;;;;;;;838.97;766.20;;;;;;;;;;5060533;28;20180;-64
2020/12/15 16:32:39;;;;;;;843.87;775.03;;;;;;;;;;5060059;28;20172;-64
2020/12/15 16:35:06;;;;;;;831.10;760.13;;;;;;;;;;5059065;28;20708;-66
2020/12/15 16:37:32;;;;;;;588.63;548.83;;;;;;;;;;5061900;28;20193;-64
2020/12/15 16:39:59;;;;;;;853.67;783.60;;;;;;;;;;5061610;28;20278;-65
2020/12/15 16:42:25;;;;;;;849.67;775.53;;;;;;;;;;5059936;28;20198;-65
2020/12/15 16:44:52;;;;;;;809.57;742.97;;;;;;;;;;5060819;28;20651;-64
2020/12/15 16:47:19;;;;;;;738.33;681.93;;;;;;;;;;5070226;28;20179;-66
2020/12/15 16:49:45;;;;;;;757.23;701.83;;;;;;;;;;5060975;28;20198;-65
2020/12/15 16:52:12;;;;;;;807.17;738.50;;;;;;;;;;5071228;28;20180;-65
2020/12/15 16:54:38;;;;;;;761.47;702.63;;;;;;;;;;5064104;28;20264;-66
2020/12/15 16:57:05;;;;;;;712.50;657.07;;;;;;;;;;5064064;28;20186;-65
2020/12/15 16:59:31;;;;;;;668.73;622.87;;;;;;;;;;5059650;28;20189;-65
2020/12/15 17:01:58;;;;;;;661.80;612.30;;;;;;;;;;5060144;28;20208;-65
2020/12/15 17:04:24;;;;;;;711.47;657.43;;;;;;;;;;5058412;28;20172;-64
2020/12/15 17:06:51;;;;;;;777.90;714.17;;;;;;;;;;5059651;28;20182;-66
2020/12/15 17:09:19;;;;;;;691.20;640.53;;;;;;;;;;5059784;28;20239;-65
2020/12/15 17:11:45;;;;;;;691.67;639.10;;;;;;;;;;5059298;28;20175;-64
2020/12/15 17:14:12;;;;;;;627.73;581.77;;;;;;;;;;5058348;28;20219;-65
2020/12/15 17:16:39;;;;;;;769.87;705.87;;;;;;;;;;5058656;28;20183;-66
2020/12/15 17:19:05;;;;;;;686.47;633.37;;;;;;;;;;5058806;28;20193;-65
2020/12/15 17:21:33;;;;;;;724.17;665.90;;;;;;;;;;5058315;28;20187;-65
2020/12/15 17:24:00;;;;;;;755.37;695.07;;;;;;;;;;5057866;28;20627;-65
2020/12/15 17:26:30;;;;;;;652.30;603.43;;;;;;;;;;5060402;28;20186;-66
2020/12/15 17:28:57;;;;;;;840.23;768.97;;;;;;;;;;5058460;28;20190;-65
2020/12/15 17:31:24;;;;;;;767.80;710.00;;;;;;;;;;5058345;28;20210;-66
2020/12/15 17:33:51;;;;;;;735.87;679.23;;;;;;;;;;5056875;28;20702;-65
2020/12/15 17:36:18;;;;;;;775.40;710.00;;;;;;;;;;5058206;28;20218;-64
2020/12/15 17:38:46;;;;;;;795.73;728.47;;;;;;;;;;5057349;28;20190;-65
2020/12/15 17:41:13;;;;;;;892.27;806.57;;;;;;;;;;5058588;28;20265;-64
2020/12/15 17:43:40;;;;;;;878.83;801.87;;;;;;;;;;5058173;28;20185;-64
2020/12/15 17:46:07;;;;;;;892.40;818.93;;;;;;;;;;5054798;28;20198;-65
2020/12/15 17:48:34;;;;;;;932.70;849.93;;;;;;;;;;5056952;28;20249;-65
2020/12/15 17:51:00;;;;;;;793.60;730.53;;;;;;;;;;5059125;28;20187;-65
2020/12/15 17:53:27;;;;;;;846.53;775.10;;;;;;;;;;5058671;28;20206;-64
2020/12/15 17:55:54;;;;;;;849.73;781.23;;;;;;;;;;5049749;28;20191;-64
2020/12/15 17:58:20;;;;;;;793.30;730.90;;;;;;;;;;5054469;28;20180;-62
2020/12/15 18:00:49;;;;;;;871.40;800.70;;;;;;;;;;5059208;28;20577;-64
2020/12/15 18:03:16;;;;;;;891.33;812.50;;;;;;;;;;5057499;28;20219;-65
2020/12/15 18:05:43;;;;;;;795.80;728.67;;;;;;;;;;5068354;28;20190;-65
2020/12/15 18:08:10;;;;;;;868.27;792.73;;;;;;;;;;5057925;28;20186;-64
2020/12/15 18:10:37;;;;;;;744.77;688.03;;;;;;;;;;5059284;28;20179;-65
2020/12/15 18:13:04;;;;;;;854.97;780.87;;;;;;;;;;5058419;28;20210;-64
2020/12/15 18:15:31;;;;;;;904.40;826.87;;;;;;;;;;5056165;28;20218;-65
2020/12/15 18:17:58;;;;;;;839.97;773.90;;;;;;;;;;5057818;28;20199;-65
2020/12/15 18:20:25;;;;;;;887.60;812.43;;;;;;;;;;5056290;28;20556;-63
2020/12/15 18:22:51;;;;;;;858.90;787.47;;;;;;;;;;5058720;28;21183;-65
2020/12/15 18:25:18;;;;;;;737.03;683.23;;;;;;;;;;5058352;28;20213;-64
2020/12/15 18:27:44;;;;;;;729.97;671.70;;;;;;;;;;5040765;28;20282;-64
2020/12/15 18:30:11;;;;;;;749.73;683.17;;;;;;;;;;5058611;28;20232;-64
2020/12/15 18:32:38;;;;;;;692.63;644.00;;;;;;;;;;5058221;28;20183;-66
2020/12/15 21:11:03;;;;;;;814.80;751.17;;;;;;;;;;5845253;22;20456;-71
2020/12/15 21:13:30;;;;;;;934.77;852.30;;;;;;;;;;4955518;28;20612;-71
2020/12/15 21:15:57;;;;;;;902.27;825.80;;;;;;;;;;4957392;28;20214;-70
2020/12/15 21:18:24;;;;;;;974.13;883.40;;;;;;;;;;4963091;28;20515;-72
2020/12/15 21:20:51;;;;;;;841.63;765.33;;;;;;;;;;4964872;28;20191;-72
2020/12/15 21:23:18;;;;;;;781.70;717.20;;;;;;;;;;4959671;28;20270;-71
2020/12/15 21:25:45;;;;;;;751.57;688.17;;;;;;;;;;4960463;28;20181;-70
2020/12/15 21:28:11;;;;;;;829.57;762.47;;;;;;;;;;4959176;28;20182;-73
2020/12/15 21:30:38;;;;;;;945.63;848.80;;;;;;;;;;4953698;28;20197;-69
2020/12/15 21:33:05;;;;;;;712.87;655.73;;;;;;;;;;4953893;28;20197;-70
2020/12/15 21:35:33;;;;;;;857.07;780.33;;;;;;;;;;4960801;28;20680;-72
2020/12/15 21:37:59;;;;;;;828.50;750.97;;;;;;;;;;4952410;28;20245;-75
2020/12/15 21:40:26;;;;;;;749.87;688.03;;;;;;;;;;4958395;28;20277;-74
2020/12/15 21:42:53;;;;;;;657.63;604.50;;;;;;;;;;4959340;28;20185;-72
2020/12/15 21:45:20;;;;;;;835.30;756.53;;;;;;;;;;4961944;28;20684;-75
2020/12/15 21:47:52;;;;;;;708.37;650.33;;;;;;;;;;4956765;28;20190;-74
2020/12/15 21:50:18;;;;;;;746.87;680.17;;;;;;;;;;4956425;28;20188;-75
2020/12/15 21:52:49;;;;;;;842.07;767.57;;;;;;;;;;4957361;28;20194;-72
2020/12/15 21:55:16;;;;;;;648.07;596.30;;;;;;;;;;4956643;28;20233;-72
2020/12/15 21:57:44;;;;;;;664.60;609.23;;;;;;;;;;4954249;28;20834;-72
2020/12/15 22:33:52;;;;;;;703.33;647.37;;;;;;;;;;4925679;28;20269;-70
2020/12/15 22:36:19;;;;;;;680.50;627.80;;;;;;;;;;4929199;29;20681;-69
2020/12/15 22:38:46;;;;;;;406.43;379.67;;;;;;;;;;4949794;28;20180;-71
2020/12/15 22:41:12;;;;;;;637.07;585.93;;;;;;;;;;4953422;28;20179;-69
2020/12/15 22:43:39;;;;;;;588.03;544.20;;;;;;;;;;4946528;28;20270;-70
2020/12/15 22:46:06;;;;;;;545.77;506.83;;;;;;;;;;4945587;29;20175;-71
2020/12/15 22:48:33;;;;;;;684.60;630.17;;;;;;;;;;4948265;28;20179;-70
2020/12/15 22:51:00;;;;;;;726.53;665.83;;;;;;;;;;4948225;28;20898;-69
2020/12/15 22:53:27;;;;;;;751.90;687.47;;;;;;;;;;4945300;28;20183;-69
2020/12/15 22:55:54;;;;;;;758.43;693.83;;;;;;;;;;4944937;29;20266;-71
2020/12/15 22:58:20;;;;;;;747.60;684.87;;;;;;;;;;4947561;28;20191;-68
2020/12/15 23:00:47;;;;;;;676.73;622.17;;;;;;;;;;4946797;28;20183;-68
2020/12/15 23:03:15;;;;;;;653.23;603.03;;;;;;;;;;4946724;29;20226;-69
2020/12/15 23:05:42;;;;;;;697.13;642.00;;;;;;;;;;4949276;28;20194;-68
2020/12/15 23:08:08;;;;;;;520.93;486.77;;;;;;;;;;4946457;29;20185;-68
2020/12/15 23:10:35;;;;;;;641.80;589.10;;;;;;;;;;4945860;28;20189;-68
2020/12/15 23:13:02;;;;;;;549.47;509.50;;;;;;;;;;4943030;28;20224;-68
2020/12/15 23:15:28;;;;;;;644.13;592.53;;;;;;;;;;4946202;28;20212;-68
2020/12/15 23:17:55;;;;;;;634.73;581.83;;;;;;;;;;4943704;29;20190;-69
2020/12/15 23:20:22;;;;;;;791.17;726.97;;;;;;;;;;4950145;28;20277;-68
2020/12/15 23:22:49;;;;;;;756.47;693.57;;;;;;;;;;4948136;28;20188;-68
2020/12/15 23:25:16;;;;;;;587.30;544.40;;;;;;;;;;4949843;28;20179;-70
2020/12/15 23:27:46;;;;;;;797.07;732.07;;;;;;;;;;4941411;29;20253;-71
2020/12/15 23:30:13;;;;;;;669.93;616.80;;;;;;;;;;4941543;29;20618;-69
2020/12/15 23:32:40;;;;;;;640.60;587.13;;;;;;;;;;4945594;29;20699;-71
2020/12/15 23:35:08;;;;;;;764.07;700.53;;;;;;;;;;4945924;29;20274;-69
2020/12/15 23:37:35;;;;;;;689.60;636.30;;;;;;;;;;4945801;29;20673;-69
2020/12/15 23:40:02;;;;;;;669.30;616.37;;;;;;;;;;4946704;29;20277;-71
2020/12/15 23:42:28;;;;;;;756.73;689.40;;;;;;;;;;4946101;29;20210;-70
2020/12/15 23:44:55;;;;;;;640.57;593.83;;;;;;;;;;4945507;29;20221;-69
2020/12/15 23:47:23;;;;;;;789.03;721.43;;;;;;;;;;4942578;29;20171;-69
2020/12/15 23:49:49;;;;;;;660.27;609.97;;;;;;;;;;4945020;28;20743;-70
2020/12/15 23:52:16;;;;;;;797.07;732.63;;;;;;;;;;4941159;29;20225;-70
2020/12/15 23:54:42;;;;;;;765.37;701.13;;;;;;;;;;4945817;28;20289;-70
2020/12/15 23:57:09;;;;;;;713.30;654.70;;;;;;;;;;4944059;29;20183;-71
2020/12/15 23:59:37;;;;;;;607.37;562.37;;;;;;;;;;4946252;28;20209;-70
